Hauptseite
METAR-TAF:

METAR-TAF

Flughäfen :

Flughafen Taschkent

Taschkent, Usbekistan

Breite: 41-16N, Länge: 069-16E, Höhe: 489 m

Beobachtung

Neuester Wetterbericht von vor 47 Minuten, um 18:00 UTC
Wind 6 kt aus Ost/Nordost
Temperatur 2°C
Luftfeuchtigkeit 69%
Luftdruck 1027 hPa
Sichtweite: 4000 m
Rauch

METAR: UTTT 161800Z 07006KT 4000 FU NSC 02/M03 Q1027 R08R/CLRD70 NOSIG

Zeit: 23:47 (18:47 UTC)

Prognose

Neuester Wetterbericht von vor 1 Stunde und 47 Minuten, um 17:00 UTC
Gültige Prognose vom 16 um 18 UTC bis 17 um 18 UTC
Wind 10 kt aus Ost/Nordost
Sichtweite: 7000 m
Zeitweise
vom 16 um 18 UTC bis 17 um 04 UTC
Sichtweite: 3000 m
Rauch

TAF: UTTT 161700Z 1618/1718 07010KT 7000 NSC TEMPO 1618/1704 3000 FU

Wetterbeobachtungen und Prognosen von mehr als 4000 Flughäfen (METAR und TAF Bericht).

Die verfügbaren Stationen werden durch gelbe und rote Markierungen auf der Karte dargestellt.

Führen Sie die Maus auf sie, um den Namen der Station zu sehen.

Darauf klicken, um die Beobachtung von Wetterbeobachtungen und Prognosen zu sehen.

Um die Karte zu ändern : klicken Sie auf den grünen Tasten mit einem schwarzen Kreuz Zum Vergrößern, auf den grünen Button mit einem Gedankenstrich zu verkleinern, oder auf die grünen Pfeile für benachbarte Karten.


METAR-TAF: